sensor_id;sensor_type;location;lat;lon;timestamp;pressure;altitude;pressure_sealevel;temperature;humidity
9525;BME280;15940;48.734;9.112;2022-12-29T00:02:13;96162.97;;;7.48;68.69
9525;BME280;15940;48.734;9.112;2022-12-29T00:04:42;96166.00;;;7.56;68.48
9525;BME280;15940;48.734;9.112;2022-12-29T00:07:09;96166.06;;;7.61;68.33
9525;BME280;15940;48.734;9.112;2022-12-29T00:09:36;96161.44;;;7.67;68.08
9525;BME280;15940;48.734;9.112;2022-12-29T00:12:04;96158.56;;;7.71;68.31
9525;BME280;15940;48.734;9.112;2022-12-29T00:14:31;96152.94;;;7.74;67.86
9525;BME280;15940;48.734;9.112;2022-12-29T00:17:15;96144.38;;;7.76;67.36
9525;BME280;15940;48.734;9.112;2022-12-29T00:19:44;96141.97;;;7.78;67.82
9525;BME280;15940;48.734;9.112;2022-12-29T00:22:28;96131.38;;;7.74;67.73
9525;BME280;15940;48.734;9.112;2022-12-29T00:25:13;96133.13;;;7.78;67.55
9525;BME280;15940;48.734;9.112;2022-12-29T00:27:58;96127.75;;;7.78;67.54
9525;BME280;15940;48.734;9.112;2022-12-29T00:30:43;96125.34;;;7.85;67.20
9525;BME280;15940;48.734;9.112;2022-12-29T00:33:30;96128.25;;;7.82;67.70
9525;BME280;15940;48.734;9.112;2022-12-29T00:36:20;96118.69;;;7.81;67.91
9525;BME280;15940;48.734;9.112;2022-12-29T00:38:53;96121.88;;;7.79;67.69
9525;BME280;15940;48.734;9.112;2022-12-29T00:41:38;96132.19;;;7.86;67.13
9525;BME280;15940;48.734;9.112;2022-12-29T00:44:22;96121.94;;;7.90;67.54
9525;BME280;15940;48.734;9.112;2022-12-29T00:46:49;96121.22;;;7.90;67.78
9525;BME280;15940;48.734;9.112;2022-12-29T00:49:16;96133.47;;;7.91;67.56
9525;BME280;15940;48.734;9.112;2022-12-29T00:52:02;96119.75;;;7.89;67.97
9525;BME280;15940;48.734;9.112;2022-12-29T00:54:31;96124.59;;;7.85;67.72
9525;BME280;15940;48.734;9.112;2022-12-29T00:56:58;96124.16;;;7.92;67.56
9525;BME280;15940;48.734;9.112;2022-12-29T00:59:26;96116.56;;;7.90;67.67
9525;BME280;15940;48.734;9.112;2022-12-29T01:01:54;96125.63;;;7.93;67.28
9525;BME280;15940;48.734;9.112;2022-12-29T01:04:23;96122.19;;;7.87;67.94
9525;BME280;15940;48.734;9.112;2022-12-29T01:06:51;96128.03;;;7.85;67.65
9525;BME280;15940;48.734;9.112;2022-12-29T01:09:20;96131.47;;;7.86;68.07
9525;BME280;15940;48.734;9.112;2022-12-29T01:12:06;96131.47;;;7.86;67.74
9525;BME280;15940;48.734;9.112;2022-12-29T01:14:33;96131.94;;;7.84;67.95
9525;BME280;15940;48.734;9.112;2022-12-29T01:17:00;96132.97;;;7.87;68.03
9525;BME280;15940;48.734;9.112;2022-12-29T01:19:27;96138.81;;;7.85;68.12
9525;BME280;15940;48.734;9.112;2022-12-29T01:21:54;96142.31;;;7.91;68.16
9525;BME280;15940;48.734;9.112;2022-12-29T01:24:22;96136.50;;;8.04;67.30
9525;BME280;15940;48.734;9.112;2022-12-29T01:26:50;96137.56;;;8.12;67.16
9525;BME280;15940;48.734;9.112;2022-12-29T01:29:17;96135.38;;;8.16;67.48
9525;BME280;15940;48.734;9.112;2022-12-29T01:31:44;96138.16;;;8.27;66.47
9525;BME280;15940;48.734;9.112;2022-12-29T01:34:11;96132.78;;;8.33;66.49
9525;BME280;15940;48.734;9.112;2022-12-29T01:36:38;96139.63;;;8.28;66.72
9525;BME280;15940;48.734;9.112;2022-12-29T01:39:05;96139.63;;;8.28;66.88
9525;BME280;15940;48.734;9.112;2022-12-29T01:41:33;96135.47;;;8.27;67.38
9525;BME280;15940;48.734;9.112;2022-12-29T01:44:00;96135.94;;;8.26;67.24
9525;BME280;15940;48.734;9.112;2022-12-29T01:46:31;96137.50;;;8.38;66.52
9525;BME280;15940;48.734;9.112;2022-12-29T01:49:08;96137.31;;;8.47;66.26
9525;BME280;15940;48.734;9.112;2022-12-29T01:51:41;96136.84;;;8.49;66.93
9525;BME280;15940;48.734;9.112;2022-12-29T01:54:13;96140.28;;;8.49;66.46
9525;BME280;15940;48.734;9.112;2022-12-29T01:56:42;96134.63;;;8.47;66.76
9525;BME280;15940;48.734;9.112;2022-12-29T01:59:21;96137.09;;;8.51;66.37
9525;BME280;15940;48.734;9.112;2022-12-29T02:01:50;96131.69;;;8.51;66.43
9525;BME280;15940;48.734;9.112;2022-12-29T02:04:17;96130.00;;;8.53;66.42
9525;BME280;15940;48.734;9.112;2022-12-29T02:06:48;96126.34;;;8.56;66.33
9525;BME280;15940;48.734;9.112;2022-12-29T02:09:16;96123.63;;;8.56;66.33
9525;BME280;15940;48.734;9.112;2022-12-29T02:11:44;96108.38;;;8.48;66.52
9525;BME280;15940;48.734;9.112;2022-12-29T02:14:13;96110.28;;;8.42;66.76
9525;BME280;15940;48.734;9.112;2022-12-29T02:16:54;96109.84;;;8.49;66.81
9525;BME280;15940;48.734;9.112;2022-12-29T02:20:10;96108.38;;;8.48;65.99
9525;BME280;15940;48.734;9.112;2022-12-29T02:22:57;96102.03;;;8.56;65.87
9525;BME280;15940;48.734;9.112;2022-12-29T02:25:54;96104.31;;;8.69;65.12
9525;BME280;15940;48.734;9.112;2022-12-29T02:29:17;96109.50;;;8.78;65.44
9525;BME280;15940;48.734;9.112;2022-12-29T02:31:55;96107.03;;;8.75;65.57
9525;BME280;15940;48.734;9.112;2022-12-29T02:34:32;96105.06;;;8.75;65.20
9525;BME280;15940;48.734;9.112;2022-12-29T02:37:07;96107.34;;;8.94;64.52
9525;BME280;15940;48.734;9.112;2022-12-29T02:39:43;96096.34;;;9.03;65.15
9525;BME280;15940;48.734;9.112;2022-12-29T02:42:23;96090.97;;;9.14;64.27
9525;BME280;15940;48.734;9.112;2022-12-29T02:44:58;96094.41;;;9.20;63.80
9525;BME280;15940;48.734;9.112;2022-12-29T02:47:37;96091.50;;;9.29;63.65
9525;BME280;15940;48.734;9.112;2022-12-29T02:50:10;96081.16;;;9.28;63.29
9525;BME280;15940;48.734;9.112;2022-12-29T02:52:45;96082.66;;;9.29;64.16
9525;BME280;15940;48.734;9.112;2022-12-29T02:55:13;96084.84;;;9.36;63.21
9525;BME280;15940;48.734;9.112;2022-12-29T02:57:39;96093.97;;;9.50;63.64
9525;BME280;15940;48.734;9.112;2022-12-29T03:00:10;96089.53;;;9.47;62.81
9525;BME280;15940;48.734;9.112;2022-12-29T03:03:12;96094.22;;;9.52;62.71
9525;BME280;15940;48.734;9.112;2022-12-29T03:06:12;96097.91;;;9.49;63.04
9525;BME280;15940;48.734;9.112;2022-12-29T03:08:50;96083.66;;;9.48;63.05
9525;BME280;15940;48.734;9.112;2022-12-29T03:11:22;96078.00;;;9.52;62.91
9525;BME280;15940;48.734;9.112;2022-12-29T03:14:17;96083.41;;;9.52;63.04
9525;BME280;15940;48.734;9.112;2022-12-29T03:17:09;96072.81;;;9.37;64.55
9525;BME280;15940;48.734;9.112;2022-12-29T03:19:47;96078.22;;;9.37;64.64
9525;BME280;15940;48.734;9.112;2022-12-29T03:22:19;96079.72;;;9.49;63.40
9525;BME280;15940;48.734;9.112;2022-12-29T03:24:59;96079.97;;;9.62;63.53
9525;BME280;15940;48.734;9.112;2022-12-29T03:27:30;96071.59;;;9.71;62.97
9525;BME280;15940;48.734;9.112;2022-12-29T03:30:01;96069.63;;;9.66;63.21
9525;BME280;15940;48.734;9.112;2022-12-29T03:32:33;96079.47;;;9.64;63.31
9525;BME280;15940;48.734;9.112;2022-12-29T03:35:05;96078.25;;;9.65;63.32
9525;BME280;15940;48.734;9.112;2022-12-29T03:37:38;96079.47;;;9.69;62.88
9525;BME280;15940;48.734;9.112;2022-12-29T03:40:08;96075.31;;;9.68;63.66
9525;BME280;15940;48.734;9.112;2022-12-29T03:42:36;96078.50;;;9.67;63.90
9525;BME280;15940;48.734;9.112;2022-12-29T03:45:07;96065.72;;;9.79;63.21
9525;BME280;15940;48.734;9.112;2022-12-29T03:47:35;96066.44;;;9.90;62.71
9525;BME280;15940;48.734;9.112;2022-12-29T03:50:05;96068.41;;;9.84;63.50
9525;BME280;15940;48.734;9.112;2022-12-29T03:52:34;96060.03;;;9.82;63.61
9525;BME280;15940;48.734;9.112;2022-12-29T03:55:01;96050.22;;;9.73;63.49
9525;BME280;15940;48.734;9.112;2022-12-29T03:57:27;96049.47;;;9.73;63.48
9525;BME280;15940;48.734;9.112;2022-12-29T03:59:54;96054.16;;;9.67;64.19
9525;BME280;15940;48.734;9.112;2022-12-29T04:02:21;96061.03;;;9.57;64.57
9525;BME280;15940;48.734;9.112;2022-12-29T04:04:49;96062.75;;;9.54;64.68
9525;BME280;15940;48.734;9.112;2022-12-29T04:07:17;96059.56;;;9.44;65.01
9525;BME280;15940;48.734;9.112;2022-12-29T04:09:44;96055.38;;;9.43;65.11
9525;BME280;15940;48.734;9.112;2022-12-29T04:12:11;96053.66;;;9.29;65.83
9525;BME280;15940;48.734;9.112;2022-12-29T04:14:39;96059.78;;;9.30;66.06
9525;BME280;15940;48.734;9.112;2022-12-29T04:17:06;96054.13;;;9.28;65.69
9525;BME280;15940;48.734;9.112;2022-12-29T04:19:32;96062.47;;;9.24;66.21
9525;BME280;15940;48.734;9.112;2022-12-29T04:21:59;96075.25;;;9.24;66.10
9525;BME280;15940;48.734;9.112;2022-12-29T04:24:27;96089.47;;;9.19;66.84
9525;BME280;15940;48.734;9.112;2022-12-29T04:26:54;96096.38;;;9.20;66.85
9525;BME280;15940;48.734;9.112;2022-12-29T04:29:21;96089.50;;;9.24;66.72
9525;BME280;15940;48.734;9.112;2022-12-29T04:31:48;96094.94;;;9.30;66.65
9525;BME280;15940;48.734;9.112;2022-12-29T04:34:15;96085.38;;;9.40;66.27
9525;BME280;15940;48.734;9.112;2022-12-29T04:36:42;96074.53;;;9.34;66.54
9525;BME280;15940;48.734;9.112;2022-12-29T04:39:09;96070.59;;;9.30;67.27
9525;BME280;15940;48.734;9.112;2022-12-29T04:41:37;96064.72;;;9.31;67.54
9525;BME280;15940;48.734;9.112;2022-12-29T04:44:05;96075.50;;;9.37;66.99
9525;BME280;15940;48.734;9.112;2022-12-29T04:46:32;96069.13;;;9.45;66.92
9525;BME280;15940;48.734;9.112;2022-12-29T04:48:58;96076.53;;;9.51;66.99
9525;BME280;15940;48.734;9.112;2022-12-29T04:51:30;96066.44;;;9.51;67.78
9525;BME280;15940;48.734;9.112;2022-12-29T04:53:57;96076.75;;;9.53;66.88
9525;BME280;15940;48.734;9.112;2022-12-29T04:56:23;96070.63;;;9.58;66.99
9525;BME280;15940;48.734;9.112;2022-12-29T04:58:52;96076.75;;;9.53;67.99
9525;BME280;15940;48.734;9.112;2022-12-29T05:01:19;96095.19;;;9.54;67.75
9525;BME280;15940;48.734;9.112;2022-12-29T05:03:46;96081.19;;;9.61;67.15
9525;BME280;15940;48.734;9.112;2022-12-29T05:06:12;96087.84;;;9.71;66.58
9525;BME280;15940;48.734;9.112;2022-12-29T05:08:39;96079.72;;;9.66;66.95
9525;BME280;15940;48.734;9.112;2022-12-29T05:11:06;96102.81;;;9.56;66.84
9525;BME280;15940;48.734;9.112;2022-12-29T05:13:33;96084.88;;;9.58;67.28
9525;BME280;15940;48.734;9.112;2022-12-29T05:16:01;96074.56;;;9.62;67.03
9525;BME280;15940;48.734;9.112;2022-12-29T05:18:28;96088.34;;;9.59;67.02
9525;BME280;15940;48.734;9.112;2022-12-29T05:20:55;96084.13;;;9.52;66.95
9525;BME280;15940;48.734;9.112;2022-12-29T05:23:22;96080.94;;;9.42;67.70
9525;BME280;15940;48.734;9.112;2022-12-29T05:25:49;96064.00;;;9.53;67.14
9525;BME280;15940;48.734;9.112;2022-12-29T05:28:16;96067.66;;;9.56;67.00
9525;BME280;15940;48.734;9.112;2022-12-29T05:30:43;96076.00;;;9.47;67.49
9525;BME280;15940;48.734;9.112;2022-12-29T05:33:11;96076.97;;;9.38;67.87
9525;BME280;15940;48.734;9.112;2022-12-29T05:35:38;96079.19;;;9.34;67.76
9525;BME280;15940;48.734;9.112;2022-12-29T05:38:05;96081.88;;;9.23;68.48
9525;BME280;15940;48.734;9.112;2022-12-29T05:40:32;96077.94;;;9.18;68.31
9525;BME280;15940;48.734;9.112;2022-12-29T05:42:59;96072.31;;;9.22;68.37
9525;BME280;15940;48.734;9.112;2022-12-29T05:45:26;96077.97;;;9.35;68.14
9525;BME280;15940;48.734;9.112;2022-12-29T05:47:53;96064.94;;;9.33;68.11
9525;BME280;15940;48.734;9.112;2022-12-29T05:50:21;96067.19;;;9.40;67.34
9525;BME280;15940;48.734;9.112;2022-12-29T05:52:48;96075.53;;;9.42;68.05
9525;BME280;15940;48.734;9.112;2022-12-29T05:55:15;96068.88;;;9.38;67.96
9525;BME280;15940;48.734;9.112;2022-12-29T05:57:42;96063.72;;;9.34;67.96
9525;BME280;15940;48.734;9.112;2022-12-29T06:00:10;96062.25;;;9.33;67.89
9525;BME280;15940;48.734;9.112;2022-12-29T06:02:37;96060.53;;;9.36;67.75
9525;BME280;15940;48.734;9.112;2022-12-29T06:05:05;96070.38;;;9.39;67.59
9525;BME280;15940;48.734;9.112;2022-12-29T06:07:33;96060.78;;;9.32;67.80
9525;BME280;15940;48.734;9.112;2022-12-29T06:10:00;96044.06;;;9.28;68.01
9525;BME280;15940;48.734;9.112;2022-12-29T06:12:27;96049.22;;;9.32;67.53
9525;BME280;15940;48.734;9.112;2022-12-29T06:14:54;96042.13;;;9.51;67.08
9525;BME280;15940;48.734;9.112;2022-12-29T06:17:21;96037.94;;;9.56;66.83
9525;BME280;15940;48.734;9.112;2022-12-29T06:19:48;96039.91;;;9.61;66.08
9525;BME280;15940;48.734;9.112;2022-12-29T06:22:15;96050.97;;;9.57;66.73
9525;BME280;15940;48.734;9.112;2022-12-29T06:24:43;96042.59;;;9.61;66.32
9525;BME280;15940;48.734;9.112;2022-12-29T06:27:10;96043.59;;;9.58;66.61
9525;BME280;15940;48.734;9.112;2022-12-29T06:29:37;96045.81;;;9.59;66.70
9525;BME280;15940;48.734;9.112;2022-12-29T06:32:07;96060.56;;;9.58;66.55
9525;BME280;15940;48.734;9.112;2022-12-29T06:34:34;96058.56;;;9.64;66.08
9525;BME280;15940;48.734;9.112;2022-12-29T06:37:01;96045.81;;;9.70;65.78
9525;BME280;15940;48.734;9.112;2022-12-29T06:39:28;96056.13;;;9.66;65.93
9525;BME280;15940;48.734;9.112;2022-12-29T06:41:56;96050.47;;;9.70;65.50
9525;BME280;15940;48.734;9.112;2022-12-29T06:44:23;96054.16;;;9.72;65.61
9525;BME280;15940;48.734;9.112;2022-12-29T06:46:50;96062.50;;;9.80;65.13
9525;BME280;15940;48.734;9.112;2022-12-29T06:49:18;96056.13;;;9.72;65.20
9525;BME280;15940;48.734;9.112;2022-12-29T06:51:45;96044.81;;;9.68;64.94
9525;BME280;15940;48.734;9.112;2022-12-29T06:54:13;96041.63;;;9.69;65.35
9525;BME280;15940;48.734;9.112;2022-12-29T06:56:40;96028.34;;;9.55;65.60
9525;BME280;15940;48.734;9.112;2022-12-29T06:59:09;96044.81;;;9.40;65.97
9525;BME280;15940;48.734;9.112;2022-12-29T07:01:36;96047.75;;;9.31;66.01
9525;BME280;15940;48.734;9.112;2022-12-29T07:04:04;96044.31;;;9.30;66.11
9525;BME280;15940;48.734;9.112;2022-12-29T07:06:31;96039.16;;;9.32;65.57
9525;BME280;15940;48.734;9.112;2022-12-29T07:08:58;96036.69;;;9.23;66.36
9525;BME280;15940;48.734;9.112;2022-12-29T07:11:24;96047.00;;;9.13;66.28
9525;BME280;15940;48.734;9.112;2022-12-29T07:13:52;96043.53;;;9.07;66.76
9525;BME280;15940;48.734;9.112;2022-12-29T07:16:20;96039.84;;;9.05;66.89
9525;BME280;15940;48.734;9.112;2022-12-29T07:18:47;96038.88;;;9.08;66.46
9525;BME280;15940;48.734;9.112;2022-12-29T07:21:14;96048.72;;;9.11;66.02
9525;BME280;15940;48.734;9.112;2022-12-29T07:23:41;96044.53;;;9.15;66.22
9525;BME280;15940;48.734;9.112;2022-12-29T07:26:12;96044.78;;;9.12;66.28
9525;BME280;15940;48.734;9.112;2022-12-29T07:28:39;96047.97;;;9.16;66.45
9525;BME280;15940;48.734;9.112;2022-12-29T07:31:15;96051.13;;;9.09;66.18
9525;BME280;15940;48.734;9.112;2022-12-29T07:33:44;96050.69;;;9.16;66.28
9525;BME280;15940;48.734;9.112;2022-12-29T07:36:11;96051.13;;;9.09;66.77
9525;BME280;15940;48.734;9.112;2022-12-29T07:38:39;96050.44;;;9.14;66.15
9525;BME280;15940;48.734;9.112;2022-12-29T07:41:06;96051.66;;;9.13;66.47
9525;BME280;15940;48.734;9.112;2022-12-29T07:43:34;96058.78;;;9.10;66.61
9525;BME280;15940;48.734;9.112;2022-12-29T07:46:01;96057.78;;;9.02;66.79
9525;BME280;15940;48.734;9.112;2022-12-29T07:48:28;96054.84;;;9.17;66.32
9525;BME280;15940;48.734;9.112;2022-12-29T07:50:56;96069.13;;;9.23;66.52
9525;BME280;15940;48.734;9.112;2022-12-29T07:53:23;96062.00;;;9.20;66.91
9525;BME280;15940;48.734;9.112;2022-12-29T07:55:50;96063.25;;;9.30;65.80
9525;BME280;15940;48.734;9.112;2022-12-29T07:58:17;96051.94;;;9.32;66.16
9525;BME280;15940;48.734;9.112;2022-12-29T08:00:44;96059.78;;;9.35;65.91
9525;BME280;15940;48.734;9.112;2022-12-29T08:03:11;96052.41;;;9.47;65.63
9525;BME280;15940;48.734;9.112;2022-12-29T08:05:38;96059.31;;;9.48;65.36
9525;BME280;15940;48.734;9.112;2022-12-29T08:08:06;96058.09;;;9.60;65.25
9525;BME280;15940;48.734;9.112;2022-12-29T08:10:33;96064.97;;;9.50;65.70
9525;BME280;15940;48.734;9.112;2022-12-29T08:13:00;96062.28;;;9.50;65.90
9525;BME280;15940;48.734;9.112;2022-12-29T08:15:27;96072.59;;;9.57;65.16
9525;BME280;15940;48.734;9.112;2022-12-29T08:17:54;96080.94;;;9.54;65.63
9525;BME280;15940;48.734;9.112;2022-12-29T08:20:21;96088.06;;;9.45;65.89
9525;BME280;15940;48.734;9.112;2022-12-29T08:22:47;96084.38;;;9.54;65.77
9525;BME280;15940;48.734;9.112;2022-12-29T08:25:16;96087.09;;;9.71;64.72
9525;BME280;15940;48.734;9.112;2022-12-29T08:27:45;96074.31;;;9.77;64.54
9525;BME280;15940;48.734;9.112;2022-12-29T08:30:13;96091.78;;;9.82;64.99
9525;BME280;15940;48.734;9.112;2022-12-29T08:32:40;96090.06;;;9.79;64.85
9525;BME280;15940;48.734;9.112;2022-12-29T08:35:08;96078.25;;;9.76;65.51
9525;BME280;15940;48.734;9.112;2022-12-29T08:37:35;96082.16;;;9.75;64.54
9525;BME280;15940;48.734;9.112;2022-12-29T08:40:02;96079.97;;;9.73;65.10
9525;BME280;15940;48.734;9.112;2022-12-29T08:42:31;96071.59;;;9.71;65.21
9525;BME280;15940;48.734;9.112;2022-12-29T08:44:59;96065.97;;;9.69;65.25
9525;BME280;15940;48.734;9.112;2022-12-29T08:47:27;96074.06;;;9.64;65.42
9525;BME280;15940;48.734;9.112;2022-12-29T08:49:54;96072.09;;;9.59;65.76
9525;BME280;15940;48.734;9.112;2022-12-29T08:52:21;96063.50;;;9.55;65.75
9525;BME280;15940;48.734;9.112;2022-12-29T08:54:48;96061.03;;;9.57;66.01
9525;BME280;15940;48.734;9.112;2022-12-29T08:57:15;96076.28;;;9.65;65.58
9525;BME280;15940;48.734;9.112;2022-12-29T08:59:43;96080.69;;;9.63;65.55
9525;BME280;15940;48.734;9.112;2022-12-29T09:02:11;96082.44;;;9.60;65.73
9525;BME280;15940;48.734;9.112;2022-12-29T09:04:38;96080.22;;;9.59;65.90
9525;BME280;15940;48.734;9.112;2022-12-29T09:07:05;96092.00;;;9.50;66.35
9525;BME280;15940;48.734;9.112;2022-12-29T09:09:32;96095.66;;;9.47;66.61
9525;BME280;15940;48.734;9.112;2022-12-29T09:11:59;96103.56;;;9.56;66.36
9525;BME280;15940;48.734;9.112;2022-12-29T09:14:26;96106.75;;;9.71;65.93
9525;BME280;15940;48.734;9.112;2022-12-29T09:16:54;96106.03;;;9.77;65.49
9525;BME280;15940;48.734;9.112;2022-12-29T09:19:39;96101.34;;;9.83;65.40
9525;BME280;15940;48.734;9.112;2022-12-29T09:22:06;96101.13;;;9.86;65.77
9525;BME280;15940;48.734;9.112;2022-12-29T09:24:33;96115.88;;;9.91;65.00
9525;BME280;15940;48.734;9.112;2022-12-29T09:27:00;96119.56;;;10.05;65.31
9525;BME280;15940;48.734;9.112;2022-12-29T09:29:27;96120.03;;;10.09;65.23
9525;BME280;15940;48.734;9.112;2022-12-29T09:31:55;96125.44;;;10.31;64.26
9525;BME280;15940;48.734;9.112;2022-12-29T09:34:23;96130.88;;;10.37;63.79
9525;BME280;15940;48.734;9.112;2022-12-29T09:36:50;96123.22;;;10.46;63.84
9525;BME280;15940;48.734;9.112;2022-12-29T09:39:17;96132.31;;;10.54;63.47
9525;BME280;15940;48.734;9.112;2022-12-29T09:41:51;96130.06;;;10.58;63.24
9525;BME280;15940;48.734;9.112;2022-12-29T09:44:25;96135.00;;;10.60;63.26
9525;BME280;15940;48.734;9.112;2022-12-29T09:46:56;96137.69;;;10.60;63.26
9525;BME280;15940;48.734;9.112;2022-12-29T09:49:39;96132.53;;;10.62;63.26
9525;BME280;15940;48.734;9.112;2022-12-29T09:52:13;96120.94;;;10.67;63.93
9525;BME280;15940;48.734;9.112;2022-12-29T09:54:50;96126.59;;;10.80;62.67
9525;BME280;15940;48.734;9.112;2022-12-29T09:57:25;96127.03;;;10.90;63.55
9525;BME280;15940;48.734;9.112;2022-12-29T09:59:57;96115.69;;;10.92;62.80
9525;BME280;15940;48.734;9.112;2022-12-29T10:02:38;96128.47;;;11.02;62.39
9525;BME280;15940;48.734;9.112;2022-12-29T10:05:20;96118.09;;;11.06;62.83
9525;BME280;15940;48.734;9.112;2022-12-29T10:07:56;96120.50;;;11.15;62.50
9525;BME280;15940;48.734;9.112;2022-12-29T10:10:35;96120.94;;;11.25;61.46
9525;BME280;15940;48.734;9.112;2022-12-29T10:13:20;96131.00;;;11.36;62.12
9525;BME280;15940;48.734;9.112;2022-12-29T10:15:59;96122.19;;;11.30;62.13
9525;BME280;15940;48.734;9.112;2022-12-29T10:18:45;96106.38;;;11.34;62.49
9525;BME280;15940;48.734;9.112;2022-12-29T10:21:28;96126.81;;;11.35;61.58
9525;BME280;15940;48.734;9.112;2022-12-29T10:24:03;96115.50;;;11.31;62.47
9525;BME280;15940;48.734;9.112;2022-12-29T10:26:37;96114.72;;;11.36;62.36
9525;BME280;15940;48.734;9.112;2022-12-29T10:29:13;96120.88;;;11.36;62.52
9525;BME280;15940;48.734;9.112;2022-12-29T10:31:46;96118.13;;;11.48;62.70
9525;BME280;15940;48.734;9.112;2022-12-29T10:34:22;96110.69;;;11.54;61.96
9525;BME280;15940;48.734;9.112;2022-12-29T10:36:57;96108.97;;;11.51;61.97
9525;BME280;15940;48.734;9.112;2022-12-29T10:39:31;96103.56;;;11.51;62.39
9525;BME280;15940;48.734;9.112;2022-12-29T10:42:09;96124.16;;;11.65;62.25
9525;BME280;15940;48.734;9.112;2022-12-29T10:44:37;96123.84;;;11.80;61.76
9525;BME280;15940;48.734;9.112;2022-12-29T10:47:10;96121.94;;;12.05;61.40
9525;BME280;15940;48.734;9.112;2022-12-29T10:49:42;96119.34;;;12.18;60.13
9525;BME280;15940;48.734;9.112;2022-12-29T10:52:12;96118.97;;;12.33;60.55
9525;BME280;15940;48.734;9.112;2022-12-29T10:54:46;96104.59;;;12.38;59.77
9525;BME280;15940;48.734;9.112;2022-12-29T10:57:26;96106.47;;;12.24;59.77
9525;BME280;15940;48.734;9.112;2022-12-29T10:59:53;96113.91;;;12.18;60.26
9525;BME280;15940;48.734;9.112;2022-12-29T11:02:43;96111.81;;;12.29;60.75
9525;BME280;15940;48.734;9.112;2022-12-29T11:05:22;96109.34;;;12.32;59.35
9525;BME280;15940;48.734;9.112;2022-12-29T11:07:51;96119.56;;;12.20;59.48
9525;BME280;15940;48.734;9.112;2022-12-29T11:10:30;96120.63;;;12.11;60.04
9525;BME280;15940;48.734;9.112;2022-12-29T11:13:03;96123.00;;;11.96;60.47
9525;BME280;15940;48.734;9.112;2022-12-29T11:15:39;96131.44;;;11.87;60.49
9525;BME280;15940;48.734;9.112;2022-12-29T11:18:19;96142.59;;;11.78;61.39
9525;BME280;15940;48.734;9.112;2022-12-29T11:20:50;96136.69;;;11.73;61.79
9525;BME280;15940;48.734;9.112;2022-12-29T11:23:29;96135.53;;;11.63;62.12
9525;BME280;15940;48.734;9.112;2022-12-29T11:26:21;96140.75;;;11.56;62.41
9525;BME280;15940;48.734;9.112;2022-12-29T11:29:20;96140.31;;;11.46;62.82
9525;BME280;15940;48.734;9.112;2022-12-29T11:31:50;96135.16;;;11.42;63.72
9525;BME280;15940;48.734;9.112;2022-12-29T11:34:20;96137.16;;;11.36;63.54
9525;BME280;15940;48.734;9.112;2022-12-29T11:36:52;96151.75;;;11.28;64.75
9525;BME280;15940;48.734;9.112;2022-12-29T11:39:39;96152.81;;;11.13;66.55
9525;BME280;15940;48.734;9.112;2022-12-29T11:42:14;96141.50;;;11.04;67.73
9525;BME280;15940;48.734;9.112;2022-12-29T11:44:44;96152.34;;;11.09;68.53
9525;BME280;15940;48.734;9.112;2022-12-29T11:47:23;96144.94;;;11.10;68.22
9525;BME280;15940;48.734;9.112;2022-12-29T11:49:56;96137.78;;;11.07;68.10
9525;BME280;15940;48.734;9.112;2022-12-29T11:52:28;96143.94;;;11.13;67.39
9525;BME280;15940;48.734;9.112;2022-12-29T11:54:57;96147.91;;;11.06;67.40
9525;BME280;15940;48.734;9.112;2022-12-29T11:57:25;96146.19;;;11.03;67.42
9525;BME280;15940;48.734;9.112;2022-12-29T11:59:53;96126.75;;;10.99;67.56
9525;BME280;15940;48.734;9.112;2022-12-29T12:02:40;96137.09;;;11.01;67.58
9525;BME280;15940;48.734;9.112;2022-12-29T12:05:22;96118.38;;;10.97;66.89
9525;BME280;15940;48.734;9.112;2022-12-29T12:07:59;96129.94;;;10.98;67.34
9525;BME280;15940;48.734;9.112;2022-12-29T12:10:32;96125.31;;;10.93;67.79
9525;BME280;15940;48.734;9.112;2022-12-29T12:13:11;96121.34;;;10.88;67.02
9525;BME280;15940;48.734;9.112;2022-12-29T12:15:49;96120.13;;;10.89;67.28
9525;BME280;15940;48.734;9.112;2022-12-29T12:18:24;96134.44;;;10.84;67.77
9525;BME280;15940;48.734;9.112;2022-12-29T12:20:56;96100.97;;;10.81;67.42
9525;BME280;15940;48.734;9.112;2022-12-29T12:23:36;96118.19;;;10.78;68.04
9525;BME280;15940;48.734;9.112;2022-12-29T12:26:12;96118.47;;;10.80;68.53
9525;BME280;15940;48.734;9.112;2022-12-29T12:28:49;96120.41;;;10.85;68.15
9525;BME280;15940;48.734;9.112;2022-12-29T12:31:37;96120.34;;;10.97;68.00
9525;BME280;15940;48.734;9.112;2022-12-29T12:34:15;96128.47;;;10.97;68.29
9525;BME280;15940;48.734;9.112;2022-12-29T12:37:06;96126.03;;;10.93;70.44
9525;BME280;15940;48.734;9.112;2022-12-29T12:39:49;96113.31;;;10.71;72.30
9525;BME280;15940;48.734;9.112;2022-12-29T12:42:34;96118.22;;;10.67;73.10
9525;BME280;15940;48.734;9.112;2022-12-29T12:45:39;96105.25;;;10.43;73.62
9525;BME280;15940;48.734;9.112;2022-12-29T12:48:30;96107.75;;;10.30;73.72
9525;BME280;15940;48.734;9.112;2022-12-29T12:51:09;96102.31;;;10.30;74.44
9525;BME280;15940;48.734;9.112;2022-12-29T12:54:08;96106.00;;;10.33;74.30
9525;BME280;15940;48.734;9.112;2022-12-29T12:57:02;96105.03;;;10.36;74.44
9525;BME280;15940;48.734;9.112;2022-12-29T12:59:46;96092.44;;;10.49;74.00
9525;BME280;15940;48.734;9.112;2022-12-29T13:02:28;96088.72;;;10.58;73.93
9525;BME280;15940;48.734;9.112;2022-12-29T13:05:36;96087.16;;;10.79;73.04
9525;BME280;15940;48.734;9.112;2022-12-29T13:08:44;96084.44;;;10.79;72.66
9525;BME280;15940;48.734;9.112;2022-12-29T13:11:21;96091.38;;;10.80;72.42
9525;BME280;15940;48.734;9.112;2022-12-29T13:14:16;96092.28;;;10.88;71.74
9525;BME280;15940;48.734;9.112;2022-12-29T13:16:52;96088.34;;;10.90;72.06
9525;BME280;15940;48.734;9.112;2022-12-29T13:19:30;96087.59;;;11.00;71.45
9525;BME280;15940;48.734;9.112;2022-12-29T13:22:07;96089.00;;;11.07;71.24
9525;BME280;15940;48.734;9.112;2022-12-29T13:24:54;96086.34;;;11.01;71.31
9525;BME280;15940;48.734;9.112;2022-12-29T13:27:32;96084.44;;;10.91;71.67
9525;BME280;15940;48.734;9.112;2022-12-29T13:30:05;96082.69;;;10.87;71.71
9525;BME280;15940;48.734;9.112;2022-12-29T13:32:53;96088.16;;;10.76;72.33
9525;BME280;15940;48.734;9.112;2022-12-29T13:35:44;96090.13;;;10.76;71.76
9525;BME280;15940;48.734;9.112;2022-12-29T13:38:19;96084.00;;;10.70;72.40
9525;BME280;15940;48.734;9.112;2022-12-29T13:40:53;96087.47;;;10.65;72.50
9525;BME280;15940;48.734;9.112;2022-12-29T13:43:22;96089.69;;;10.66;72.63
9525;BME280;15940;48.734;9.112;2022-12-29T13:46:02;96076.38;;;10.68;72.37
9525;BME280;15940;48.734;9.112;2022-12-29T13:48:39;96087.47;;;10.65;72.94